createdAt,value
2022-11-28T00:01:20.673Z,14.27
2022-11-28T00:03:48.165Z,14.65
2022-11-28T00:06:15.719Z,14.18
2022-11-28T00:08:43.200Z,14.63
2022-11-28T00:11:11.664Z,14.50
2022-11-28T00:13:39.061Z,15.23
2022-11-28T00:16:07.587Z,15.02
2022-11-28T00:18:34.972Z,14.52
2022-11-28T00:21:06.946Z,15.48
2022-11-28T00:23:34.492Z,15.02
2022-11-28T00:26:10.218Z,15.02
2022-11-28T00:28:37.834Z,15.23
2022-11-28T00:31:05.257Z,15.52
2022-11-28T00:33:33.098Z,14.40
2022-11-28T00:36:01.385Z,15.50
2022-11-28T00:38:29.108Z,14.23
2022-11-28T00:41:07.123Z,15.52
2022-11-28T00:43:34.567Z,14.52
2022-11-28T00:46:02.571Z,15.43
2022-11-28T00:48:29.936Z,15.77
2022-11-28T00:51:10.259Z,15.55
2022-11-28T00:53:37.631Z,15.60
2022-11-28T00:56:05.773Z,14.98
2022-11-28T00:58:33.834Z,16.17
2022-11-28T01:01:01.352Z,15.18
2022-11-28T01:03:28.753Z,15.85
2022-11-28T01:05:56.061Z,15.55
2022-11-28T01:08:23.348Z,15.25
2022-11-28T01:10:50.627Z,15.70
2022-11-28T01:13:17.924Z,15.13
2022-11-28T01:15:45.210Z,15.40
2022-11-28T01:18:12.544Z,15.13
2022-11-28T01:20:39.901Z,15.68
2022-11-28T01:23:07.190Z,15.57
2022-11-28T01:25:35.128Z,15.68
2022-11-28T01:28:02.487Z,15.30
2022-11-28T01:30:29.821Z,16.55
2022-11-28T01:32:57.138Z,14.48
2022-11-28T01:35:24.485Z,15.52
2022-11-28T01:37:51.806Z,15.95
2022-11-28T01:40:19.135Z,15.80
2022-11-28T01:42:46.426Z,16.67
2022-11-28T01:45:23.152Z,15.48
2022-11-28T01:47:51.056Z,15.63
2022-11-28T01:50:18.466Z,15.65
2022-11-28T01:52:47.064Z,15.55
2022-11-28T01:55:14.878Z,15.35
2022-11-28T01:57:42.331Z,16.70
2022-11-28T02:00:17.248Z,15.40
2022-11-28T02:03:05.814Z,17.83
2022-11-28T02:05:33.114Z,18.13
2022-11-28T02:08:00.441Z,18.13
2022-11-28T02:11:09.585Z,15.98
2022-11-28T02:13:55.737Z,17.58
2022-11-28T02:16:26.020Z,16.05
2022-11-28T02:18:53.334Z,17.08
2022-11-28T02:21:42.020Z,16.08
2022-11-28T02:24:36.624Z,15.23
2022-11-28T02:27:29.151Z,16.95
2022-11-28T02:30:16.133Z,16.58
2022-11-28T02:32:46.370Z,16.10
2022-11-28T02:35:28.673Z,15.55
2022-11-28T02:38:35.569Z,16.50
2022-11-28T02:41:12.668Z,15.52
2022-11-28T02:44:11.119Z,15.98
2022-11-28T02:46:47.819Z,17.40
2022-11-28T02:49:28.509Z,16.00
2022-11-28T02:52:04.704Z,15.57
2022-11-28T02:54:32.491Z,16.42
2022-11-28T02:56:59.891Z,16.23
2022-11-28T02:59:32.232Z,16.25
2022-11-28T03:02:00.733Z,17.13
2022-11-28T03:04:49.839Z,16.33
2022-11-28T03:07:41.187Z,17.77
2022-11-28T03:10:19.834Z,16.10
2022-11-28T03:13:02.974Z,16.27
2022-11-28T03:15:42.329Z,16.98
2022-11-28T03:18:15.916Z,16.17
2022-11-28T03:21:13.974Z,12.13
2022-11-28T03:23:52.406Z,15.25
2022-11-28T03:26:33.443Z,15.60
2022-11-28T03:29:11.527Z,16.63
2022-11-28T03:32:03.305Z,16.90
2022-11-28T03:34:35.923Z,15.98
2022-11-28T03:37:17.747Z,17.35
2022-11-28T03:39:48.051Z,16.20
2022-11-28T03:42:19.337Z,16.63
2022-11-28T03:44:56.455Z,15.90
2022-11-28T03:47:28.591Z,16.05
2022-11-28T03:49:56.882Z,16.80
2022-11-28T03:52:29.634Z,17.20
2022-11-28T03:55:02.961Z,16.63
2022-11-28T03:58:19.503Z,16.23
2022-11-28T04:01:02.976Z,16.27
2022-11-28T04:03:41.564Z,16.55
2022-11-28T04:06:18.807Z,16.67
2022-11-28T04:08:50.166Z,16.00
2022-11-28T04:11:20.602Z,16.55
2022-11-28T04:13:51.148Z,15.55
2022-11-28T04:16:50.558Z,17.55
2022-11-28T04:19:26.091Z,16.58
2022-11-28T04:22:18.926Z,16.17
2022-11-28T04:24:58.049Z,15.95
2022-11-28T04:27:28.838Z,16.52
2022-11-28T04:29:58.582Z,16.65
2022-11-28T04:32:25.922Z,16.85
2022-11-28T04:34:55.460Z,18.23
2022-11-28T04:37:23.326Z,16.25
2022-11-28T04:39:50.720Z,17.23
2022-11-28T04:42:40.993Z,17.42
2022-11-28T04:45:39.089Z,16.90
2022-11-28T04:48:06.478Z,17.52
2022-11-28T04:51:00.121Z,16.42
2022-11-28T04:53:48.404Z,16.73
2022-11-28T04:56:31.685Z,16.23
2022-11-28T04:58:59.059Z,16.50
2022-11-28T05:01:27.541Z,16.23
2022-11-28T05:03:54.994Z,17.27
2022-11-28T05:06:30.305Z,17.73
2022-11-28T05:08:57.589Z,18.70
2022-11-28T05:11:25.473Z,18.75
2022-11-28T05:13:53.080Z,19.33
2022-11-28T05:16:20.529Z,18.58
2022-11-28T05:18:47.954Z,18.80
2022-11-28T05:21:15.244Z,19.05
2022-11-28T05:23:43.633Z,17.85
2022-11-28T05:26:20.895Z,19.55
2022-11-28T05:28:50.096Z,19.02
2022-11-28T05:31:19.046Z,18.30
2022-11-28T05:33:46.422Z,18.55
2022-11-28T05:36:14.286Z,18.98
2022-11-28T05:38:42.004Z,18.48
2022-11-28T05:41:09.554Z,17.83
2022-11-28T05:43:36.946Z,17.70
2022-11-28T05:46:05.920Z,17.55
2022-11-28T05:48:33.311Z,18.50
2022-11-28T05:51:00.660Z,18.70
2022-11-28T05:53:27.994Z,18.27
2022-11-28T05:55:55.272Z,18.67
2022-11-28T05:58:22.534Z,18.70
2022-11-28T06:00:49.968Z,17.17
2022-11-28T06:03:17.261Z,19.33
2022-11-28T06:05:44.671Z,18.55
2022-11-28T06:08:12.341Z,18.27
2022-11-28T06:10:39.975Z,18.70
2022-11-28T06:13:07.332Z,18.05
2022-11-28T06:15:37.869Z,17.30
2022-11-28T06:18:05.989Z,17.05
2022-11-28T06:20:35.105Z,17.98
2022-11-28T06:23:02.409Z,18.13
2022-11-28T06:25:29.697Z,18.33
2022-11-28T06:27:57.008Z,18.13
2022-11-28T06:30:24.281Z,17.95
2022-11-28T06:32:51.591Z,18.63
2022-11-28T06:35:18.874Z,18.08
2022-11-28T06:37:46.192Z,18.45
2022-11-28T06:40:13.721Z,18.55
2022-11-28T06:42:41.008Z,19.52
2022-11-28T06:45:09.557Z,19.13
2022-11-28T06:47:36.874Z,19.23
2022-11-28T06:50:04.516Z,18.77
2022-11-28T06:52:31.786Z,18.92
2022-11-28T06:54:59.135Z,18.60
2022-11-28T06:57:26.756Z,17.77
2022-11-28T06:59:54.058Z,17.40
2022-11-28T07:02:22.843Z,19.13
2022-11-28T07:04:50.187Z,18.27
2022-11-28T07:07:17.665Z,19.30
2022-11-28T07:09:45.293Z,19.42
2022-11-28T07:12:13.245Z,19.23
2022-11-28T07:14:40.593Z,18.05
2022-11-28T07:17:08.076Z,19.00
2022-11-28T07:19:35.466Z,18.42
2022-11-28T07:22:02.784Z,19.70
2022-11-28T07:24:30.211Z,19.38
2022-11-28T07:26:57.582Z,19.38
2022-11-28T07:29:24.921Z,22.52
2022-11-28T07:31:52.271Z,20.30
2022-11-28T07:34:19.661Z,20.45
2022-11-28T07:36:46.951Z,19.10
2022-11-28T07:39:14.317Z,18.85
2022-11-28T07:41:41.665Z,18.05
2022-11-28T07:44:09.846Z,16.38
2022-11-28T07:46:37.216Z,16.77
2022-11-28T07:49:04.583Z,16.88
2022-11-28T07:51:33.148Z,16.15
2022-11-28T07:54:00.684Z,16.48
2022-11-28T07:56:50.078Z,14.25
2022-11-28T07:59:17.296Z,15.85
2022-11-28T08:01:44.635Z,15.52
2022-11-28T08:04:12.051Z,14.60
2022-11-28T08:06:40.718Z,14.32
2022-11-28T08:09:08.276Z,15.20
2022-11-28T08:11:35.895Z,14.50
2022-11-28T08:14:03.339Z,14.15
2022-11-28T08:16:30.772Z,15.15
2022-11-28T08:19:00.632Z,16.13
2022-11-28T08:21:29.832Z,16.45
2022-11-28T08:23:59.341Z,15.43
2022-11-28T08:26:30.344Z,16.50
2022-11-28T08:28:59.224Z,15.98
2022-11-28T08:31:37.121Z,15.40
2022-11-28T08:34:06.540Z,15.30
2022-11-28T08:36:33.765Z,14.68
2022-11-28T08:41:48.392Z,14.40
2022-11-28T08:44:16.146Z,14.57
2022-11-28T08:46:43.444Z,13.98
2022-11-28T08:49:10.625Z,14.30
2022-11-28T08:51:37.833Z,14.35
2022-11-28T08:54:05.244Z,13.75
2022-11-28T08:56:32.555Z,14.05
2022-11-28T08:59:00.022Z,13.90
2022-11-28T09:01:27.550Z,13.02
2022-11-28T09:03:55.214Z,12.75
2022-11-28T09:06:22.899Z,12.68
2022-11-28T09:08:50.488Z,13.27
2022-11-28T09:11:19.031Z,12.75
2022-11-28T09:13:46.351Z,12.45
2022-11-28T09:16:14.412Z,12.90
2022-11-28T09:18:41.890Z,11.73
2022-11-28T09:21:10.252Z,13.70
2022-11-28T09:23:38.124Z,12.68
2022-11-28T09:26:10.071Z,12.10
2022-11-28T09:28:37.546Z,12.07
2022-11-28T09:31:05.505Z,11.52
2022-11-28T09:33:33.153Z,11.52
2022-11-28T09:36:05.175Z,11.88
2022-11-28T09:38:32.500Z,11.23
2022-11-28T09:41:00.942Z,10.85
2022-11-28T09:43:38.329Z,10.73
2022-11-28T09:46:08.319Z,10.43
2022-11-28T09:48:37.934Z,11.55
2022-11-28T09:51:28.129Z,10.43
2022-11-28T09:54:15.436Z,10.90
2022-11-28T09:56:43.627Z,10.90
2022-11-28T09:59:25.324Z,11.90
2022-11-28T10:02:20.423Z,10.50
2022-11-28T10:05:03.003Z,10.60
2022-11-28T10:07:54.923Z,11.05
2022-11-28T10:10:44.070Z,11.55
2022-11-28T10:13:32.697Z,10.60
2022-11-28T10:16:30.352Z,10.77
2022-11-28T10:19:00.391Z,10.63
2022-11-28T10:21:38.857Z,10.98
2022-11-28T10:24:31.596Z,10.43
2022-11-28T10:26:59.551Z,10.25
2022-11-28T10:29:46.253Z,10.20
2022-11-28T10:32:31.826Z,10.32
2022-11-28T10:35:01.921Z,9.63
2022-11-28T10:37:31.356Z,9.57
2022-11-28T10:40:05.494Z,10.27
2022-11-28T10:42:35.537Z,7.30
2022-11-28T10:45:12.873Z,9.85
2022-11-28T10:47:52.050Z,10.07
2022-11-28T10:50:30.810Z,9.55
2022-11-28T10:53:19.282Z,10.45
2022-11-28T10:55:55.670Z,9.95
2022-11-28T10:58:24.580Z,9.75
2022-11-28T11:00:55.401Z,9.93
2022-11-28T11:03:29.171Z,9.55
2022-11-28T11:05:56.495Z,9.35
2022-11-28T11:08:29.114Z,9.43
2022-11-28T11:11:07.260Z,9.23
2022-11-28T11:13:35.927Z,8.25
2022-11-28T11:16:05.828Z,8.60
2022-11-28T11:18:46.629Z,9.63
2022-11-28T11:21:23.884Z,10.10
2022-11-28T11:24:18.953Z,8.65
2022-11-28T11:26:49.324Z,8.55
2022-11-28T11:29:28.585Z,8.35
2022-11-28T11:31:55.919Z,9.07
2022-11-28T11:34:23.531Z,9.05
2022-11-28T11:36:50.898Z,8.77
2022-11-28T11:39:25.569Z,8.60
2022-11-28T11:42:01.972Z,9.50
2022-11-28T11:44:36.433Z,8.70
2022-11-28T11:47:08.570Z,9.07
2022-11-28T11:49:43.587Z,7.80
2022-11-28T11:52:27.051Z,8.05
2022-11-28T11:54:57.472Z,7.95
2022-11-28T11:57:37.208Z,8.10
2022-11-28T12:00:14.376Z,6.82
2022-11-28T12:03:10.179Z,6.18
2022-11-28T12:06:13.782Z,6.50
2022-11-28T12:08:52.681Z,5.88
2022-11-28T12:11:43.938Z,6.20
2022-11-28T12:14:29.260Z,6.28
2022-11-28T12:17:40.879Z,5.90
2022-11-28T12:20:29.554Z,6.28
2022-11-28T12:23:18.811Z,6.82
2022-11-28T12:25:58.182Z,7.80
2022-11-28T12:28:56.521Z,7.72
2022-11-28T12:31:51.818Z,9.30
2022-11-28T12:34:41.137Z,9.63
2022-11-28T12:37:42.026Z,9.65
2022-11-28T12:40:17.536Z,8.07
2022-11-28T12:43:15.603Z,7.32
2022-11-28T12:46:01.916Z,8.07
2022-11-28T12:49:00.488Z,7.47
2022-11-28T12:52:12.938Z,7.78
2022-11-28T12:54:53.079Z,7.05
2022-11-28T12:57:45.480Z,7.22
2022-11-28T13:00:19.849Z,7.00
2022-11-28T13:03:11.812Z,7.40
2022-11-28T13:05:58.111Z,6.93
2022-11-28T13:08:58.269Z,7.63
2022-11-28T13:11:51.932Z,7.72
2022-11-28T13:14:48.623Z,6.72
2022-11-28T13:17:43.961Z,7.35
2022-11-28T13:20:23.229Z,5.93
2022-11-28T13:22:53.194Z,7.57
2022-11-28T13:25:55.099Z,7.03
2022-11-28T13:28:42.456Z,7.72
2022-11-28T13:31:32.641Z,7.90
2022-11-28T13:33:59.904Z,9.30
2022-11-28T13:39:57.867Z,8.18
2022-11-28T13:45:30.247Z,8.57
2022-11-28T13:48:00.702Z,9.10
2022-11-28T13:50:35.934Z,9.43
2022-11-28T13:53:23.906Z,8.88
2022-11-28T13:56:17.257Z,9.95
2022-11-28T13:58:54.091Z,9.35
2022-11-28T14:01:24.988Z,9.27
2022-11-28T14:03:52.217Z,9.93
2022-11-28T14:06:23.605Z,9.82
2022-11-28T14:09:16.374Z,10.07
2022-11-28T14:12:02.183Z,9.65
2022-11-28T14:14:47.480Z,10.50
2022-11-28T14:17:33.167Z,10.70
2022-11-28T14:20:18.883Z,11.35
2022-11-28T14:22:53.436Z,11.32
2022-11-28T14:25:22.898Z,11.90
2022-11-28T14:27:54.620Z,11.60
2022-11-28T14:30:38.818Z,11.45
2022-11-28T14:33:16.238Z,9.98
2022-11-28T14:35:53.021Z,9.77
2022-11-28T14:38:35.312Z,10.68
2022-11-28T14:41:11.668Z,10.20
2022-11-28T14:43:48.580Z,10.88
2022-11-28T14:46:15.820Z,10.60
2022-11-28T14:48:58.183Z,9.48
2022-11-28T14:51:47.367Z,8.48
2022-11-28T14:54:19.052Z,9.07
2022-11-28T14:56:46.361Z,8.60
2022-11-28T14:59:13.590Z,8.55
2022-11-28T15:01:49.856Z,8.68
2022-11-28T15:04:39.974Z,9.40
2022-11-28T15:07:18.248Z,9.25
2022-11-28T15:09:51.690Z,8.25
2022-11-28T15:12:28.182Z,8.73
2022-11-28T15:14:56.163Z,9.07
2022-11-28T15:17:28.429Z,8.65
2022-11-28T15:19:55.990Z,8.60
2022-11-28T15:22:33.495Z,8.90
2022-11-28T15:25:00.767Z,8.90
2022-11-28T15:27:28.869Z,8.48
2022-11-28T15:30:01.445Z,8.45
2022-11-28T15:32:29.791Z,8.70
2022-11-28T15:35:01.441Z,8.50
2022-11-28T15:37:33.252Z,8.48
2022-11-28T15:40:01.605Z,8.18
2022-11-28T15:42:31.774Z,8.30
2022-11-28T15:45:18.873Z,8.13
2022-11-28T15:47:46.679Z,8.48
2022-11-28T15:50:18.212Z,8.43
2022-11-28T15:52:54.919Z,8.82
2022-11-28T15:55:22.798Z,9.25
2022-11-28T15:57:50.130Z,8.40
2022-11-28T16:00:18.987Z,8.40
2022-11-28T16:02:46.727Z,7.70
2022-11-28T16:05:21.877Z,9.07
2022-11-28T16:07:50.182Z,8.35
2022-11-28T16:10:35.214Z,9.38
2022-11-28T16:13:03.357Z,9.07
2022-11-28T16:15:30.669Z,8.88
2022-11-28T16:17:58.004Z,9.60
2022-11-28T16:20:27.113Z,9.10
2022-11-28T16:23:09.672Z,9.27
2022-11-28T16:25:37.969Z,8.85
2022-11-28T16:28:05.951Z,9.85
2022-11-28T16:30:42.690Z,9.93
2022-11-28T16:33:43.003Z,8.82
2022-11-28T16:36:20.516Z,9.27
2022-11-28T16:38:48.562Z,9.25
2022-11-28T16:41:25.436Z,9.82
2022-11-28T16:43:56.917Z,10.60
2022-11-28T16:46:30.659Z,9.77
2022-11-28T16:48:58.624Z,9.02
2022-11-28T16:51:25.852Z,9.13
2022-11-28T16:53:59.394Z,10.10
2022-11-28T16:56:29.876Z,9.15
2022-11-28T16:59:17.225Z,9.32
2022-11-28T17:01:46.166Z,9.73
2022-11-28T17:04:22.420Z,9.25
2022-11-28T17:06:50.088Z,8.15
2022-11-28T17:09:17.464Z,9.95
2022-11-28T17:12:04.189Z,9.43
2022-11-28T17:14:31.553Z,9.43
2022-11-28T17:17:01.830Z,9.15
2022-11-28T17:19:29.250Z,9.13
2022-11-28T17:21:57.850Z,9.35
2022-11-28T17:24:29.986Z,8.45
2022-11-28T17:26:57.345Z,9.82
2022-11-28T17:29:28.580Z,9.88
2022-11-28T17:31:58.727Z,10.18
2022-11-28T17:34:33.265Z,9.75
2022-11-28T17:37:01.083Z,9.05
2022-11-28T17:39:28.825Z,9.55
2022-11-28T17:41:59.361Z,9.20
2022-11-28T17:44:30.991Z,10.50
2022-11-28T17:47:00.669Z,9.48
2022-11-28T17:49:28.900Z,9.15
2022-11-28T17:51:56.567Z,9.98
2022-11-28T17:54:24.864Z,9.35
2022-11-28T17:56:55.124Z,9.38
2022-11-28T17:59:23.350Z,9.55
2022-11-28T18:01:50.888Z,9.63
2022-11-28T18:04:23.971Z,9.77
2022-11-28T18:06:51.282Z,9.48
2022-11-28T18:09:18.628Z,9.63
2022-11-28T18:11:48.530Z,10.38
2022-11-28T18:14:19.209Z,11.63
2022-11-28T18:16:47.240Z,11.45
2022-11-28T18:19:14.595Z,11.80
2022-11-28T18:21:42.103Z,10.32
2022-11-28T18:24:09.939Z,10.00
2022-11-28T18:26:37.792Z,9.77
2022-11-28T18:29:06.859Z,10.98
2022-11-28T18:31:34.469Z,10.93
2022-11-28T18:34:05.879Z,10.25
2022-11-28T18:36:35.920Z,10.50
2022-11-28T18:39:05.339Z,9.90
2022-11-28T18:41:33.017Z,11.05
2022-11-28T18:44:01.877Z,9.90
2022-11-28T18:46:29.625Z,10.68
2022-11-28T18:48:57.088Z,9.88
2022-11-28T18:51:29.208Z,9.68
2022-11-28T18:53:57.225Z,10.05
2022-11-28T18:56:25.187Z,9.50
2022-11-28T18:58:53.403Z,9.65
2022-11-28T19:01:22.794Z,9.32
2022-11-28T19:03:51.296Z,10.35
2022-11-28T19:06:19.001Z,10.60
2022-11-28T19:08:46.672Z,10.35
2022-11-28T19:11:15.879Z,11.93
2022-11-28T19:13:47.031Z,10.18
2022-11-28T19:16:20.663Z,10.90
2022-11-28T19:18:48.327Z,10.60
2022-11-28T19:21:17.938Z,11.52
2022-11-28T19:23:47.137Z,11.90
2022-11-28T19:26:16.153Z,13.13
2022-11-28T19:28:43.653Z,12.75
2022-11-28T19:31:20.435Z,12.90
2022-11-28T19:34:00.249Z,14.25
2022-11-28T19:36:32.737Z,15.05
2022-11-28T19:39:00.288Z,14.90
2022-11-28T19:41:27.812Z,13.30
2022-11-28T19:43:55.282Z,13.60
2022-11-28T19:46:22.807Z,14.70
2022-11-28T19:48:51.712Z,14.80
2022-11-28T19:51:20.288Z,13.95
2022-11-28T19:53:47.569Z,14.50
2022-11-28T19:56:19.946Z,14.20
2022-11-28T19:58:47.462Z,15.27
2022-11-28T20:01:17.154Z,14.57
2022-11-28T20:03:47.597Z,13.52
2022-11-28T20:06:16.904Z,14.85
2022-11-28T20:08:44.539Z,15.35
2022-11-28T20:11:22.006Z,15.63
2022-11-28T20:13:49.485Z,15.73
2022-11-28T20:16:17.662Z,14.50
2022-11-28T20:18:45.146Z,15.00
2022-11-28T20:21:15.622Z,15.52
2022-11-28T20:23:53.705Z,15.55
2022-11-28T20:26:23.712Z,15.82
2022-11-28T20:28:51.044Z,15.07
2022-11-28T20:31:47.898Z,15.52
2022-11-28T20:34:18.721Z,15.32
2022-11-28T20:36:52.673Z,14.88
2022-11-28T20:39:20.125Z,14.82
2022-11-28T20:41:47.492Z,15.48
2022-11-28T20:44:15.077Z,14.27
2022-11-28T20:46:44.014Z,15.77
2022-11-28T20:49:11.379Z,14.13
2022-11-28T20:51:38.758Z,14.30
2022-11-28T20:54:06.404Z,15.35
2022-11-28T20:56:57.894Z,15.02
2022-11-28T20:59:23.993Z,13.68
2022-11-28T21:01:51.389Z,14.38
2022-11-28T21:04:18.865Z,15.65
2022-11-28T21:06:47.257Z,15.15
2022-11-28T21:09:14.755Z,15.35
2022-11-28T21:11:56.730Z,16.40
2022-11-28T21:14:25.212Z,16.25
2022-11-28T21:16:52.575Z,17.50
2022-11-28T21:19:19.908Z,17.65
2022-11-28T21:21:47.291Z,17.38
2022-11-28T21:24:14.777Z,16.42
2022-11-28T21:26:45.311Z,16.02
2022-11-28T21:31:44.447Z,15.73
2022-11-28T21:34:16.886Z,16.17
2022-11-28T21:36:44.502Z,14.73
2022-11-28T21:39:16.738Z,14.95
2022-11-28T21:41:44.015Z,14.98
2022-11-28T21:44:11.409Z,14.50
2022-11-28T21:46:38.794Z,13.93
2022-11-28T21:49:06.132Z,14.57
2022-11-28T21:51:38.039Z,15.63
2022-11-28T21:54:06.252Z,14.05
2022-11-28T21:56:33.976Z,14.82
2022-11-28T21:59:01.427Z,14.90
2022-11-28T22:01:29.444Z,14.60
2022-11-28T22:04:02.133Z,14.80
2022-11-28T22:06:30.789Z,14.63
2022-11-28T22:08:58.102Z,14.52
2022-11-28T22:11:25.668Z,14.20
2022-11-28T22:13:53.009Z,13.95
2022-11-28T22:16:29.880Z,14.88
2022-11-28T22:18:59.479Z,14.10
2022-11-28T22:24:14.320Z,14.32
2022-11-28T22:26:41.892Z,14.90
2022-11-28T22:29:09.178Z,14.45
2022-11-28T22:31:36.694Z,14.30
2022-11-28T22:34:04.267Z,13.55
2022-11-28T22:36:33.357Z,13.77
2022-11-28T22:39:01.126Z,14.80
2022-11-28T22:41:29.780Z,14.18
2022-11-28T22:44:00.568Z,13.45
2022-11-28T22:46:28.575Z,14.45
2022-11-28T22:48:56.024Z,14.32
2022-11-28T22:51:24.718Z,12.98
2022-11-28T22:53:59.431Z,13.00
2022-11-28T22:56:28.268Z,13.15
2022-11-28T22:58:55.732Z,14.70
2022-11-28T23:01:25.655Z,12.73
2022-11-28T23:03:53.598Z,13.10
2022-11-28T23:06:23.145Z,13.30
2022-11-28T23:08:55.668Z,13.93
2022-11-28T23:11:25.606Z,13.23
2022-11-28T23:13:53.213Z,12.80
2022-11-28T23:16:20.538Z,11.82
2022-11-28T23:18:50.053Z,12.82
2022-11-28T23:21:18.325Z,13.57
2022-11-28T23:23:46.119Z,12.40
2022-11-28T23:26:15.497Z,12.27
2022-11-28T23:28:43.036Z,12.43
2022-11-28T23:31:12.438Z,11.82
2022-11-28T23:33:39.968Z,11.60
2022-11-28T23:36:15.450Z,11.43
2022-11-28T23:38:43.421Z,8.27
2022-11-28T23:41:10.887Z,11.38
2022-11-28T23:43:38.272Z,12.02
2022-11-28T23:46:06.068Z,12.93
2022-11-28T23:48:33.460Z,11.63
2022-11-28T23:51:00.776Z,11.93
2022-11-28T23:53:28.036Z,12.85
2022-11-28T23:55:55.298Z,11.98
2022-11-28T23:58:22.574Z,11.45
